Time;durP1;ratioP1;P1;durP2;ratioP2;P2;SDS_P1;SDS_P2;PMS_P1;PMS_P2;Temp;Humidity;BMP_temperature;BMP_pressure;BME280_temperature;BME280_humidity;BME280_pressure;Samples;Min_cycle;Max_cycle;Signal;HPM_P1;HPM_P2
2023/10/08 00:00:50;;;;;;;9.30;4.25;;;18.10;99.90;;;;;;5053503;28;20189;-48
2023/10/08 00:03:17;;;;;;;8.52;3.65;;;18.00;99.90;;;;;;5053856;28;20186;-49
2023/10/08 00:05:43;;;;;;;5.63;3.95;;;18.00;99.90;;;;;;5036027;28;20663;-49
2023/10/08 00:08:12;;;;;;;8.27;4.28;;;18.00;99.90;;;;;;5053100;28;20179;-49
2023/10/08 00:10:42;;;;;;;6.68;3.42;;;17.90;99.90;;;;;;5053391;28;20175;-48
2023/10/08 00:13:09;;;;;;;10.18;4.00;;;17.90;99.90;;;;;;5053274;28;20265;-49
2023/10/08 00:15:49;;;;;;;5.72;3.78;;;17.80;99.90;;;;;;5053242;28;20181;-48
2023/10/08 00:18:15;;;;;;;7.25;4.07;;;17.80;99.90;;;;;;5053217;28;20198;-48
2023/10/08 00:21:06;;;;;;;6.00;3.80;;;17.80;99.90;;;;;;5052834;28;20173;-49
2023/10/08 00:23:34;;;;;;;5.55;3.67;;;17.70;99.90;;;;;;5034924;28;20181;-48
2023/10/08 00:26:06;;;;;;;5.88;3.28;;;17.70;99.90;;;;;;5053003;28;20201;-48
2023/10/08 00:28:32;;;;;;;9.23;4.10;;;17.70;99.90;;;;;;5052002;28;20648;-49
2023/10/08 00:31:11;;;;;;;5.72;3.65;;;17.70;99.90;;;;;;5052311;28;20171;-48
2023/10/08 00:33:36;;;;;;;6.82;4.18;;;17.70;99.90;;;;;;5052646;28;20163;-49
2023/10/08 00:36:17;;;;;;;9.23;4.05;;;17.60;99.90;;;;;;5052501;28;20158;-49
2023/10/08 00:38:44;;;;;;;7.95;3.75;;;17.60;99.90;;;;;;5035342;28;20582;-48
2023/10/08 00:41:16;;;;;;;8.05;3.80;;;17.60;99.90;;;;;;5052663;28;20205;-49
2023/10/08 00:43:44;;;;;;;7.07;3.65;;;17.50;99.90;;;;;;5052788;28;20221;-48
2023/10/08 00:46:32;;;;;;;7.20;3.63;;;17.50;99.90;;;;;;5052131;28;20701;-49
2023/10/08 00:48:58;;;;;;;5.53;3.67;;;17.50;99.90;;;;;;5051875;28;20201;-51
2023/10/08 00:54:06;;;;;;;6.80;3.40;;;17.40;99.90;;;;;;5052515;28;20178;-51
2023/10/08 00:59:21;;;;;;;6.80;3.50;;;17.40;99.90;;;;;;5052437;28;20657;-51
2023/10/08 01:01:51;;;;;;;5.53;3.20;;;17.40;99.90;;;;;;5052048;28;20664;-49
2023/10/08 01:04:26;;;;;;;6.18;3.63;;;17.30;99.90;;;;;;5052235;28;20209;-48
2023/10/08 01:07:01;;;;;;;8.35;4.00;;;17.30;99.90;;;;;;5051986;28;20162;-49
2023/10/08 01:09:35;;;;;;;6.28;3.80;;;17.30;99.90;;;;;;5052187;28;20641;-49
2023/10/08 01:12:44;;;;;;;6.43;4.25;;;17.20;99.90;;;;;;5052140;28;20181;-49
2023/10/08 01:15:16;;;;;;;7.50;3.70;;;17.20;99.90;;;;;;5051379;28;20654;-49
2023/10/08 01:17:51;;;;;;;10.10;4.00;;;17.10;99.90;;;;;;5052129;28;20270;-49
2023/10/08 01:20:32;;;;;;;9.63;3.83;;;17.10;99.90;;;;;;5051784;28;20166;-51
2023/10/08 01:22:58;;;;;;;6.72;3.90;;;17.00;99.90;;;;;;5051669;28;20181;-50
2023/10/08 01:25:24;;;;;;;9.10;3.83;;;17.00;99.90;;;;;;5051965;28;20529;-50
2023/10/08 01:27:55;;;;;;;7.28;3.83;;;17.00;99.90;;;;;;5033778;28;20353;-51
2023/10/08 01:30:21;;;;;;;6.43;4.15;;;16.90;99.90;;;;;;5051634;28;20167;-48
2023/10/08 01:32:47;;;;;;;8.65;3.83;;;16.90;99.90;;;;;;5051594;28;20177;-49
2023/10/08 01:35:23;;;;;;;7.13;3.78;;;16.90;99.90;;;;;;5051944;28;20650;-49
2023/10/08 01:37:52;;;;;;;7.13;3.97;;;16.90;99.90;;;;;;5051673;28;20229;-49
2023/10/08 01:40:18;;;;;;;8.88;4.30;;;16.80;99.90;;;;;;5051110;28;20163;-48
2023/10/08 01:42:45;;;;;;;5.68;3.55;;;16.80;99.90;;;;;;5051892;28;20201;-50
2023/10/08 01:45:17;;;;;;;6.25;3.83;;;16.80;99.90;;;;;;5051913;28;20167;-50
2023/10/08 01:47:43;;;;;;;12.57;4.10;;;16.70;99.90;;;;;;5051668;28;20222;-50
2023/10/08 01:50:21;;;;;;;7.38;3.67;;;16.70;99.90;;;;;;5051357;28;20525;-49
2023/10/08 01:52:51;;;;;;;10.30;3.55;;;16.60;99.90;;;;;;5051394;28;20200;-49
2023/10/08 01:55:18;;;;;;;7.93;3.75;;;16.60;99.90;;;;;;5051539;28;20182;-51
2023/10/08 01:57:44;;;;;;;6.38;3.90;;;16.60;99.90;;;;;;5051915;28;20218;-50
2023/10/08 02:00:10;;;;;;;9.20;4.20;;;16.50;99.90;;;;;;5051204;28;20216;-50
2023/10/08 02:02:36;;;;;;;7.50;4.07;;;16.50;99.90;;;;;;5051506;28;20166;-50
2023/10/08 02:05:02;;;;;;;5.68;3.75;;;16.40;99.90;;;;;;5051221;28;20212;-51
2023/10/08 02:07:30;;;;;;;6.47;3.75;;;16.50;99.90;;;;;;5051185;28;20162;-51
2023/10/08 02:09:57;;;;;;;9.40;3.53;;;16.40;99.90;;;;;;5051485;28;20534;-49
2023/10/08 02:12:23;;;;;;;8.25;3.60;;;;;;;;;;5051413;28;20174;-49
2023/10/08 02:14:49;;;;;;;7.60;3.72;;;16.40;99.90;;;;;;5033280;28;20171;-49
2023/10/08 02:17:14;;;;;;;5.72;3.58;;;16.40;99.90;;;;;;5033629;28;20222;-49
2023/10/08 02:19:41;;;;;;;6.90;3.75;;;16.40;99.90;;;;;;5051128;28;20162;-49
2023/10/08 02:22:09;;;;;;;7.28;3.50;;;16.40;99.90;;;;;;5051297;28;20257;-49
2023/10/08 02:24:35;;;;;;;9.82;4.22;;;16.40;99.90;;;;;;5051314;28;20174;-49
2023/10/08 02:27:01;;;;;;;8.05;4.63;;;16.40;99.90;;;;;;5051046;28;20183;-49
2023/10/08 02:29:30;;;;;;;9.80;3.90;;;16.40;99.90;;;;;;5051092;28;20167;-49
2023/10/08 02:31:56;;;;;;;8.30;4.43;;;16.30;99.90;;;;;;5051009;28;20177;-49
2023/10/08 02:34:22;;;;;;;7.75;4.20;;;16.30;99.90;;;;;;5051200;28;20537;-50
2023/10/08 02:36:47;;;;;;;5.78;3.60;;;16.30;99.90;;;;;;5050895;28;20203;-48
2023/10/08 02:39:15;;;;;;;9.02;4.22;;;16.30;99.90;;;;;;5051377;28;20174;-49
2023/10/08 02:41:42;;;;;;;6.22;3.65;;;;;;;;;;5033485;28;20198;-48
2023/10/08 02:44:11;;;;;;;9.32;4.18;;;16.30;99.90;;;;;;5050826;28;20206;-49
2023/10/08 02:46:41;;;;;;;8.38;4.07;;;16.30;99.90;;;;;;5050650;28;20784;-49
2023/10/08 02:49:11;;;;;;;7.25;3.72;;;16.30;99.90;;;;;;5050761;28;20171;-48
2023/10/08 02:51:38;;;;;;;8.20;3.97;;;16.30;99.90;;;;;;5050823;28;20163;-48
2023/10/08 02:54:05;;;;;;;5.90;3.53;;;16.30;99.90;;;;;;5054401;28;20205;-49
2023/10/08 02:56:32;;;;;;;8.50;4.32;;;16.30;99.90;;;;;;5054389;28;20159;-48
2023/10/08 02:59:00;;;;;;;7.78;3.80;;;16.30;99.90;;;;;;5054443;28;20199;-48
2023/10/08 03:01:25;;;;;;;7.88;3.60;;;16.30;99.90;;;;;;5054649;28;20228;-48
2023/10/08 03:04:01;;;;;;;9.00;3.95;;;16.30;99.90;;;;;;5054423;28;20167;-48
2023/10/08 03:06:27;;;;;;;7.07;3.97;;;16.30;99.90;;;;;;5054291;28;20584;-48
2023/10/08 03:08:52;;;;;;;8.07;3.88;;;16.30;99.90;;;;;;5054294;28;20195;-48
2023/10/08 03:11:18;;;;;;;7.50;3.85;;;16.30;99.90;;;;;;5054198;28;20637;-49
2023/10/08 03:13:46;;;;;;;8.98;3.80;;;16.20;99.90;;;;;;5054508;28;20174;-49
2023/10/08 03:16:13;;;;;;;5.80;3.75;;;16.20;99.90;;;;;;5054818;28;20182;-49
2023/10/08 03:18:45;;;;;;;7.13;3.35;;;16.20;99.90;;;;;;5054112;28;20210;-48
2023/10/08 03:21:56;;;;;;;6.85;4.38;;;16.20;99.90;;;;;;5054431;28;20625;-49
2023/10/08 03:24:00;;;;;;;7.60;4.07;;;16.20;99.90;;;;;;5045730;28;20198;-48
2023/10/08 03:28:59;;;;;;;10.02;3.75;;;16.10;99.90;;;;;;5053901;28;20533;-51
2023/10/08 03:31:49;;;;;;;6.18;4.28;;;16.00;99.90;;;;;;5036081;28;20193;-48
2023/10/08 03:34:18;;;;;;;9.45;4.18;;;16.00;99.90;;;;;;5054415;28;20174;-49
2023/10/08 03:36:45;;;;;;;9.55;3.85;;;16.00;99.90;;;;;;5054206;28;20290;-50
2023/10/08 03:39:15;;;;;;;6.90;4.20;;;16.00;99.90;;;;;;5054438;28;20171;-51
2023/10/08 03:41:41;;;;;;;9.63;3.78;;;16.00;99.90;;;;;;5054195;28;20177;-50
2023/10/08 03:44:14;;;;;;;9.93;3.70;;;;;;;;;;5053868;28;20175;-51
2023/10/08 03:46:42;;;;;;;10.13;4.20;;;16.00;99.90;;;;;;5053395;28;20215;-49
2023/10/08 03:49:24;;;;;;;12.25;4.68;;;16.00;99.90;;;;;;5053485;28;20170;-50
2023/10/08 03:51:52;;;;;;;6.45;3.92;;;16.00;99.90;;;;;;5053413;28;20645;-48
2023/10/08 03:54:19;;;;;;;6.75;3.90;;;16.00;99.90;;;;;;5053457;28;20166;-49
2023/10/08 03:56:46;;;;;;;6.32;3.58;;;16.00;99.90;;;;;;5053960;28;20616;-48
2023/10/08 03:59:30;;;;;;;8.18;4.50;;;16.00;99.90;;;;;;5053830;28;20246;-48
2023/10/08 04:02:14;;;;;;;6.93;4.00;;;16.00;99.90;;;;;;5053575;28;20206;-49
2023/10/08 04:04:53;;;;;;;6.07;3.83;;;16.00;99.90;;;;;;5052995;28;20170;-48
2023/10/08 04:07:51;;;;;;;8.65;4.60;;;16.00;99.90;;;;;;5053139;28;20245;-51
2023/10/08 04:10:34;;;;;;;4.93;3.65;;;16.00;99.90;;;;;;5053346;28;20174;-52
2023/10/08 04:13:00;;;;;;;7.80;4.03;;;16.00;99.90;;;;;;5053273;28;20184;-51
2023/10/08 04:15:27;;;;;;;8.60;3.80;;;16.00;99.90;;;;;;5053028;28;20163;-51
2023/10/08 04:17:52;;;;;;;8.02;4.22;;;16.00;99.90;;;;;;5052791;28;20206;-51
2023/10/08 04:20:33;;;;;;;6.78;3.88;;;16.10;99.90;;;;;;5052923;28;20181;-51
2023/10/08 04:23:04;;;;;;;11.27;4.07;;;16.00;99.90;;;;;;5052894;28;20526;-51
2023/10/08 04:25:31;;;;;;;5.68;4.10;;;16.00;99.90;;;;;;5035358;28;20520;-52
2023/10/08 04:27:59;;;;;;;9.32;3.67;;;16.00;99.90;;;;;;5052755;28;20192;-52
2023/10/08 04:30:32;;;;;;;6.45;4.30;;;15.90;99.90;;;;;;5053086;28;20162;-51
2023/10/08 04:33:12;;;;;;;5.68;3.90;;;15.90;99.90;;;;;;5052904;28;20189;-52
2023/10/08 04:35:48;;;;;;;6.55;3.38;;;15.90;99.90;;;;;;5052532;28;20552;-51
2023/10/08 04:38:21;;;;;;;10.32;4.50;;;15.90;99.90;;;;;;5052787;28;20206;-51
2023/10/08 04:40:51;;;;;;;8.05;4.20;;;15.90;99.90;;;;;;5052436;28;20649;-51
2023/10/08 04:43:24;;;;;;;7.63;3.85;;;15.90;99.90;;;;;;5052708;28;20182;-51
2023/10/08 04:45:59;;;;;;;8.65;4.38;;;15.80;99.90;;;;;;5052244;28;20226;-51
2023/10/08 04:48:27;;;;;;;8.48;4.65;;;15.80;99.90;;;;;;5052383;28;20543;-51
2023/10/08 04:50:58;;;;;;;9.35;4.65;;;15.80;99.90;;;;;;5052546;28;20174;-51
2023/10/08 04:53:32;;;;;;;16.23;4.60;;;15.70;99.90;;;;;;5052235;28;20582;-51
2023/10/08 04:56:05;;;;;;;5.75;3.50;;;15.70;99.90;;;;;;5052462;28;20178;-52
2023/10/08 04:58:33;;;;;;;6.57;3.90;;;15.70;99.90;;;;;;5052317;28;20343;-51
2023/10/08 05:01:16;;;;;;;5.90;3.67;;;15.60;99.90;;;;;;5052100;28;20163;-52
2023/10/08 05:25:34;;;;;;;7.97;3.83;;;15.50;99.90;;;;;;5051722;28;20163;-50
2023/10/08 05:27:58;;;;;;;8.10;4.13;;;15.40;99.90;;;;;;5051520;28;20185;-49
2023/10/08 05:30:38;;;;;;;8.23;4.18;;;15.40;99.90;;;;;;5051618;28;20526;-49
2023/10/08 05:41:28;;;;;;;6.93;4.53;;;15.30;99.90;;;;;;5017928;28;20178;-51
2023/10/08 05:44:14;;;;;;;9.77;4.55;;;15.30;99.90;;;;;;5051443;28;20703;-51
2023/10/08 05:46:48;;;;;;;5.25;3.70;;;15.20;99.90;;;;;;5051398;28;20225;-51
2023/10/08 06:07:56;;;;;;;10.25;4.50;;;15.30;99.90;;;;;;5051469;28;20288;-51
2023/10/08 06:13:04;;;;;;;9.68;4.70;;;15.40;99.90;;;;;;5051559;28;20515;-52
2023/10/08 06:16:04;;;;;;;8.48;4.45;;;15.40;99.90;;;;;;5051445;28;20301;-52
2023/10/08 06:18:31;;;;;;;10.38;4.80;;;15.40;99.90;;;;;;5051110;28;20194;-53
2023/10/08 06:21:08;;;;;;;8.07;4.22;;;15.30;99.90;;;;;;5051352;28;20191;-52
2023/10/08 06:23:38;;;;;;;14.73;4.88;;;15.30;99.90;;;;;;5051130;28;20170;-51
2023/10/08 06:28:36;;;;;;;6.63;4.10;;;15.30;99.90;;;;;;5055285;28;20178;-52
2023/10/08 06:31:06;;;;;;;9.88;3.78;;;15.40;99.90;;;;;;5054914;28;20159;-52
2023/10/08 06:33:33;;;;;;;8.00;4.72;;;15.50;99.90;;;;;;5055123;28;20186;-52
2023/10/08 06:36:02;;;;;;;11.25;4.40;;;15.50;99.90;;;;;;5054889;28;20170;-51
2023/10/08 06:38:34;;;;;;;13.93;4.65;;;15.50;99.90;;;;;;5054960;28;20207;-51
2023/10/08 06:41:29;;;;;;;9.43;4.90;;;15.60;99.90;;;;;;5054753;28;20171;-51
2023/10/08 06:43:49;;;;;;;8.68;4.43;;;15.60;99.90;;;;;;5054170;28;20269;-51
2023/10/08 06:46:19;;;;;;;9.35;4.70;;;15.70;99.90;;;;;;5054428;28;20697;-51
2023/10/08 06:48:45;;;;;;;10.70;4.20;;;15.70;99.90;;;;;;5055034;28;20182;-49
2023/10/08 06:51:12;;;;;;;9.73;4.70;;;15.70;99.90;;;;;;5055014;28;20631;-52
2023/10/08 06:53:44;;;;;;;10.75;4.93;;;15.70;99.90;;;;;;5054504;28;20163;-52
2023/10/08 06:56:12;;;;;;;7.05;4.65;;;15.80;99.90;;;;;;5055132;28;20253;-51
2023/10/08 06:58:38;;;;;;;9.60;4.53;;;15.80;99.90;;;;;;5054512;28;20252;-51
2023/10/08 07:01:04;;;;;;;10.10;4.40;;;15.90;99.90;;;;;;5054376;28;20174;-51
2023/10/08 07:03:31;;;;;;;7.20;4.00;;;15.80;99.90;;;;;;5054314;28;20166;-51
2023/10/08 07:05:58;;;;;;;7.55;4.28;;;15.80;99.90;;;;;;5036492;28;20289;-51
2023/10/08 07:08:33;;;;;;;9.27;4.53;;;15.80;99.90;;;;;;5054283;28;20169;-50
2023/10/08 07:11:06;;;;;;;7.00;4.50;;;15.80;99.90;;;;;;5054241;28;20594;-51
2023/10/08 07:13:33;;;;;;;9.98;4.15;;;15.80;99.90;;;;;;5054204;28;20224;-48
2023/10/08 07:16:03;;;;;;;8.73;4.10;;;15.90;99.90;;;;;;5054121;28;20656;-52
2023/10/08 07:18:31;;;;;;;7.57;4.53;;;15.90;99.90;;;;;;5054270;28;20227;-51
2023/10/08 07:21:00;;;;;;;9.88;4.43;;;16.00;99.90;;;;;;5054327;28;20179;-49
2023/10/08 07:23:29;;;;;;;7.68;4.35;;;16.10;99.90;;;;;;5054006;28;20162;-51
2023/10/08 07:26:23;;;;;;;7.35;4.22;;;16.20;99.90;;;;;;5053889;28;20653;-50
2023/10/08 07:28:51;;;;;;;12.15;4.20;;;16.30;99.90;;;;;;5053898;28;20186;-51
2023/10/08 07:31:22;;;;;;;10.07;4.97;;;16.40;99.90;;;;;;5054099;28;20263;-51
2023/10/08 07:33:57;;;;;;;10.40;4.53;;;16.50;99.90;;;;;;5053809;28;20643;-49
2023/10/08 07:36:26;;;;;;;8.57;4.35;;;16.50;99.90;;;;;;5053761;28;20181;-49
2023/10/08 07:38:52;;;;;;;13.93;4.70;;;;;;;;;;5052991;28;20336;-51
2023/10/08 07:41:20;;;;;;;6.22;4.05;;;16.70;99.90;;;;;;5053645;28;20257;-48
2023/10/08 07:43:55;;;;;;;8.15;4.50;;;16.80;99.90;;;;;;5053847;28;20220;-48
2023/10/08 07:46:21;;;;;;;7.35;4.25;;;16.90;99.90;;;;;;5053354;28;20689;-51
2023/10/08 07:48:47;;;;;;;9.65;5.05;;;16.90;99.90;;;;;;5053492;28;20171;-48
2023/10/08 07:51:14;;;;;;;10.35;4.68;;;16.90;99.90;;;;;;5053898;28;20526;-50
2023/10/08 07:53:41;;;;;;;6.35;4.85;;;17.00;99.90;;;;;;5053880;28;20258;-48
2023/10/08 07:56:08;;;;;;;6.80;4.25;;;17.10;99.90;;;;;;5053330;28;20167;-49
2023/10/08 07:58:38;;;;;;;7.95;4.65;;;17.10;99.90;;;;;;5053050;28;20198;-48
2023/10/08 08:01:07;;;;;;;10.00;4.78;;;17.10;99.90;;;;;;5053254;28;20174;-50
2023/10/08 08:03:36;;;;;;;10.20;4.43;;;17.10;99.90;;;;;;5053512;28;20198;-49
2023/10/08 08:06:05;;;;;;;12.00;4.70;;;17.00;99.90;;;;;;5053221;28;20435;-51
2023/10/08 08:08:33;;;;;;;7.80;4.22;;;17.00;99.90;;;;;;5053217;28;20633;-51
2023/10/08 08:11:07;;;;;;;12.60;4.70;;;16.90;99.90;;;;;;5053056;28;20637;-51
2023/10/08 08:13:34;;;;;;;14.27;4.97;;;17.00;99.90;;;;;;5053341;28;20175;-49
2023/10/08 08:16:09;;;;;;;7.63;4.60;;;17.10;99.90;;;;;;5052965;28;20167;-51
2023/10/08 08:18:36;;;;;;;11.07;5.50;;;17.20;99.90;;;;;;5053100;28;20205;-50
2023/10/08 08:21:02;;;;;;;12.07;5.20;;;17.30;99.90;;;;;;5052934;28;20170;-51
2023/10/08 08:23:29;;;;;;;10.02;4.72;;;17.30;99.90;;;;;;5035010;28;20178;-49
2023/10/08 08:26:11;;;;;;;8.55;4.70;;;17.30;99.90;;;;;;5053030;28;20167;-49
2023/10/08 08:28:38;;;;;;;10.38;4.85;;;17.20;99.90;;;;;;5052728;28;20162;-48
2023/10/08 08:31:04;;;;;;;14.18;5.45;;;17.30;99.90;;;;;;5052951;28;20170;-49
2023/10/08 08:33:52;;;;;;;10.70;4.95;;;17.30;99.90;;;;;;5052716;28;20258;-50
2023/10/08 08:36:21;;;;;;;10.77;5.68;;;17.20;99.90;;;;;;5052894;28;20258;-51
2023/10/08 08:38:47;;;;;;;8.40;5.28;;;17.30;99.90;;;;;;5052509;28;20213;-49
2023/10/08 08:41:17;;;;;;;8.57;4.78;;;17.40;99.90;;;;;;5052922;28;20685;-51
2023/10/08 08:43:44;;;;;;;13.63;6.10;;;17.50;99.90;;;;;;5053126;28;20201;-49
2023/10/08 08:46:12;;;;;;;11.05;5.60;;;17.70;99.90;;;;;;5052816;28;20214;-51
2023/10/08 08:48:42;;;;;;;12.35;7.90;;;17.90;99.90;;;;;;5052651;28;20235;-52
2023/10/08 08:51:09;;;;;;;17.60;10.00;;;17.90;99.90;;;;;;5051347;28;20180;-51
2023/10/08 08:53:36;;;;;;;20.63;12.27;;;18.00;99.90;;;;;;5052186;28;20687;-51
2023/10/08 08:56:05;;;;;;;14.70;5.63;;;18.20;99.90;;;;;;5052437;28;20220;-50
2023/10/08 08:58:33;;;;;;;15.32;6.80;;;18.20;99.90;;;;;;5052375;28;20287;-49
2023/10/08 09:01:01;;;;;;;16.58;6.43;;;18.10;99.90;;;;;;5052133;28;20245;-51
2023/10/08 09:03:30;;;;;;;15.65;5.93;;;18.10;99.90;;;;;;5052131;28;20162;-51
2023/10/08 09:05:57;;;;;;;11.35;5.57;;;18.20;99.90;;;;;;5052309;28;20170;-51
2023/10/08 09:08:27;;;;;;;10.80;5.40;;;18.20;99.90;;;;;;5052054;28;20159;-51
2023/10/08 09:11:00;;;;;;;19.90;5.85;;;18.30;99.90;;;;;;5052013;28;20177;-48
2023/10/08 09:13:26;;;;;;;16.75;6.10;;;18.40;99.90;;;;;;5052038;28;20201;-51
2023/10/08 09:15:52;;;;;;;14.68;6.28;;;18.70;99.90;;;;;;5051857;28;20194;-49
2023/10/08 09:18:21;;;;;;;12.90;5.82;;;18.60;99.90;;;;;;5051797;28;20265;-50
2023/10/08 09:20:47;;;;;;;14.65;6.05;;;18.60;99.90;;;;;;5052076;28;20163;-48
2023/10/08 09:23:17;;;;;;;15.07;6.18;;;18.50;99.90;;;;;;5052093;28;20183;-49
2023/10/08 09:25:44;;;;;;;16.55;6.05;;;18.70;99.90;;;;;;5052399;28;20181;-49
2023/10/08 09:28:12;;;;;;;15.82;6.43;;;18.60;99.90;;;;;;5052116;28;20167;-48
2023/10/08 09:30:39;;;;;;;19.02;6.88;;;18.60;99.90;;;;;;5051604;28;20167;-49
2023/10/08 09:33:12;;;;;;;13.68;6.25;;;18.90;99.90;;;;;;5051855;28;20186;-50
2023/10/08 09:35:38;;;;;;;18.58;6.43;;;18.90;99.90;;;;;;5051528;28;20167;-51
2023/10/08 09:38:08;;;;;;;20.35;7.80;;;19.00;99.90;;;;;;5051520;28;20210;-48
2023/10/08 09:40:36;;;;;;;21.00;7.00;;;18.90;99.90;;;;;;5051395;28;20171;-49
2023/10/08 09:43:03;;;;;;;23.33;8.00;;;19.00;99.90;;;;;;5051469;28;20170;-49
2023/10/08 09:45:30;;;;;;;18.17;7.35;;;19.10;99.90;;;;;;5051389;28;20634;-48
2023/10/08 09:47:56;;;;;;;20.42;7.50;;;19.10;99.90;;;;;;5033589;28;20596;-52
2023/10/08 09:50:30;;;;;;;15.85;7.25;;;19.10;99.90;;;;;;5051390;28;20158;-51
2023/10/08 09:53:01;;;;;;;17.52;6.72;;;19.10;99.90;;;;;;5051388;28;20175;-49
2023/10/08 09:55:28;;;;;;;22.02;7.35;;;19.10;99.90;;;;;;5051329;28;20185;-51
2023/10/08 09:57:55;;;;;;;18.23;7.47;;;19.10;99.90;;;;;;5051219;28;20209;-51
2023/10/08 10:00:30;;;;;;;14.75;6.78;;;19.20;99.90;;;;;;5051218;28;20681;-51
2023/10/08 10:02:58;;;;;;;14.75;7.00;;;19.20;99.90;;;;;;5057359;28;20620;-51
2023/10/08 10:05:28;;;;;;;17.30;7.70;;;19.30;99.90;;;;;;5057978;28;20166;-49
2023/10/08 10:07:56;;;;;;;15.77;6.95;;;19.40;99.90;;;;;;5040008;28;20167;-49
2023/10/08 10:10:32;;;;;;;20.88;8.10;;;19.40;99.90;;;;;;5058043;28;20539;-51
2023/10/08 10:12:59;;;;;;;17.75;7.72;;;19.40;99.90;;;;;;5058091;28;20257;-51
2023/10/08 10:15:25;;;;;;;18.23;7.63;;;19.40;99.90;;;;;;5057626;28;20268;-50
2023/10/08 10:17:51;;;;;;;21.02;8.00;;;19.30;99.90;;;;;;5057719;28;20288;-51
2023/10/08 10:20:17;;;;;;;14.82;7.45;;;19.30;99.90;;;;;;5057712;28;20238;-50
2023/10/08 10:22:43;;;;;;;22.55;7.90;;;19.30;99.90;;;;;;5040271;28;20170;-51
2023/10/08 10:25:19;;;;;;;15.73;7.72;;;19.40;99.90;;;;;;5058196;28;20158;-48
2023/10/08 10:27:51;;;;;;;16.02;7.22;;;19.50;99.90;;;;;;5057747;28;20170;-49
2023/10/08 10:30:19;;;;;;;15.57;7.20;;;19.60;99.90;;;;;;5057901;28;20509;-48
2023/10/08 10:32:46;;;;;;;20.02;8.05;;;19.70;99.90;;;;;;5057646;28;20633;-48
2023/10/08 10:35:17;;;;;;;17.27;7.60;;;19.80;99.90;;;;;;5057823;28;20178;-48
2023/10/08 10:37:51;;;;;;;17.33;7.75;;;19.70;99.90;;;;;;5058196;28;20205;-49
2023/10/08 10:40:28;;;;;;;18.38;7.90;;;19.70;99.90;;;;;;5057766;28;20192;-48
2023/10/08 10:42:56;;;;;;;17.80;7.90;;;19.80;99.90;;;;;;5057646;28;20709;-49
2023/10/08 10:45:43;;;;;;;18.27;7.30;;;19.90;99.90;;;;;;5057578;28;20204;-48
2023/10/08 10:54:19;;;;;;;18.63;8.25;;;19.80;99.90;;;;;;5057788;28;20166;-49
2023/10/08 10:56:31;;;;;;;14.45;7.57;;;19.80;99.90;;;;;;5054288;28;20751;-50
2023/10/08 10:59:05;;;;;;;17.98;8.27;;;19.90;99.90;;;;;;5057387;28;20281;-49
2023/10/08 11:01:44;;;;;;;14.60;7.95;;;20.10;99.90;;;;;;5057345;28;20154;-49
2023/10/08 11:04:15;;;;;;;14.65;7.47;;;20.30;99.90;;;;;;5058124;28;20174;-49
2023/10/08 11:06:44;;;;;;;17.63;7.45;;;20.20;99.90;;;;;;5057844;28;20173;-48
2023/10/08 11:09:15;;;;;;;18.58;7.80;;;20.30;99.90;;;;;;5058035;28;20174;-49
2023/10/08 11:11:44;;;;;;;14.05;7.25;;;20.40;99.90;;;;;;5058016;28;20205;-49
2023/10/08 11:14:18;;;;;;;16.42;7.43;;;20.50;99.90;;;;;;5054175;28;20190;-49
2023/10/08 11:16:47;;;;;;;17.85;8.20;;;20.60;99.90;;;;;;5054335;28;20232;-49
2023/10/08 11:19:15;;;;;;;14.88;7.78;;;;;;;;;;5054345;28;20193;-48
2023/10/08 11:21:51;;;;;;;20.30;8.90;;;20.90;99.90;;;;;;5036704;28;20201;-49
2023/10/08 11:24:37;;;;;;;19.90;8.60;;;20.80;99.90;;;;;;5054018;28;20249;-48
2023/10/08 11:27:15;;;;;;;16.40;8.05;;;20.80;99.90;;;;;;5054011;28;20640;-49
2023/10/08 11:29:46;;;;;;;18.20;9.32;;;20.90;99.90;;;;;;5036545;28;20186;-50
2023/10/08 11:32:17;;;;;;;17.90;8.43;;;21.00;99.90;;;;;;5054282;28;20676;-52
2023/10/08 11:34:49;;;;;;;16.00;7.93;;;20.90;99.90;;;;;;5054308;28;20171;-49
2023/10/08 11:37:26;;;;;;;21.58;9.75;;;20.90;99.90;;;;;;5053640;28;20343;-49
2023/10/08 11:39:57;;;;;;;22.58;9.57;;;21.00;99.90;;;;;;5053670;28;20189;-48
2023/10/08 11:42:40;;;;;;;20.20;10.40;;;20.90;99.90;;;;;;5053966;28;20175;-49
2023/10/08 11:45:23;;;;;;;21.25;9.52;;;20.80;99.90;;;;;;5035728;28;20166;-48
2023/10/08 11:47:55;;;;;;;23.67;10.70;;;20.70;99.90;;;;;;5035538;28;20222;-48
2023/10/08 11:50:30;;;;;;;22.88;11.05;;;20.80;99.90;;;;;;5053862;28;20175;-48
2023/10/08 11:53:02;;;;;;;23.67;10.30;;;21.00;99.90;;;;;;5053703;28;20193;-50
2023/10/08 11:55:35;;;;;;;25.85;10.55;;;20.90;99.90;;;;;;5053672;28;20183;-48
2023/10/08 11:58:09;;;;;;;21.45;10.68;;;20.80;99.90;;;;;;5053507;28;20209;-48
2023/10/08 12:00:43;;;;;;;21.05;10.30;;;20.80;99.90;;;;;;5035473;28;20170;-50
2023/10/08 12:03:10;;;;;;;21.45;9.95;;;21.10;99.90;;;;;;5053706;28;20199;-47
2023/10/08 12:05:38;;;;;;;19.48;10.75;;;20.90;99.90;;;;;;5053179;28;20158;-48
2023/10/08 12:08:08;;;;;;;83.45;53.83;;;20.60;99.90;;;;;;5053434;28;20174;-48
2023/10/08 12:10:34;;;;;;;28.90;21.40;;;20.60;99.90;;;;;;5053072;28;20167;-49
2023/10/08 12:13:00;;;;;;;19.75;12.27;;;20.60;99.90;;;;;;5053319;28;20171;-49
2023/10/08 12:15:38;;;;;;;26.05;12.30;;;20.50;99.90;;;;;;5053276;28;20170;-49
2023/10/08 12:18:24;;;;;;;26.33;11.63;;;20.60;99.90;;;;;;5052968;28;20209;-50
2023/10/08 12:20:50;;;;;;;27.23;12.75;;;20.40;99.90;;;;;;5035175;28;20525;-50
2023/10/08 12:23:25;;;;;;;28.17;15.93;;;20.60;99.90;;;;;;5052903;28;20217;-49
2023/10/08 12:25:57;;;;;;;21.80;10.73;;;20.60;99.90;;;;;;5052714;28;20682;-50
2023/10/08 12:28:24;;;;;;;22.92;10.70;;;20.60;99.90;;;;;;5052724;28;20163;-49
2023/10/08 12:30:55;;;;;;;22.63;10.13;;;20.60;99.90;;;;;;5034887;28;20174;-49
2023/10/08 12:33:24;;;;;;;23.08;10.02;;;20.50;99.90;;;;;;5052758;28;20564;-50
2023/10/08 12:35:55;;;;;;;21.00;9.95;;;20.60;99.90;;;;;;5052731;28;20193;-49
2023/10/08 12:38:22;;;;;;;19.42;10.20;;;;;;;;;;5052484;28;20288;-49
2023/10/08 12:40:52;;;;;;;20.90;9.98;;;20.30;99.90;;;;;;5052606;28;20170;-52
2023/10/08 12:43:19;;;;;;;18.75;9.70;;;20.30;99.90;;;;;;5035044;28;20248;-51
2023/10/08 12:45:52;;;;;;;22.35;10.13;;;20.20;99.90;;;;;;5052354;28;20189;-49
2023/10/08 12:48:27;;;;;;;21.48;9.60;;;20.30;99.90;;;;;;5052356;28;20178;-50
2023/10/08 12:50:58;;;;;;;21.08;9.65;;;20.30;99.90;;;;;;5052444;28;20158;-51
2023/10/08 12:53:33;;;;;;;20.65;10.30;;;20.30;99.90;;;;;;5052411;28;20163;-50
2023/10/08 12:56:06;;;;;;;23.00;10.35;;;20.20;99.90;;;;;;5052331;28;20676;-49
2023/10/08 12:58:44;;;;;;;16.08;9.73;;;20.40;99.90;;;;;;5052383;28;20214;-49
2023/10/08 13:01:10;;;;;;;21.98;11.15;;;20.20;99.90;;;;;;5052708;28;20191;-48
2023/10/08 13:03:41;;;;;;;20.02;10.35;;;20.20;99.90;;;;;;5052369;28;20177;-50
2023/10/08 13:06:14;;;;;;;17.73;10.13;;;20.50;99.90;;;;;;5052277;28;20167;-49
2023/10/08 13:08:40;;;;;;;22.33;11.60;;;20.80;99.90;;;;;;5034535;28;20257;-49
2023/10/08 13:11:06;;;;;;;20.38;10.20;;;20.60;99.90;;;;;;5052016;28;20177;-49
2023/10/08 13:13:36;;;;;;;19.27;9.85;;;20.60;99.90;;;;;;5052242;28;20174;-50
2023/10/08 13:16:07;;;;;;;18.20;10.27;;;20.60;99.90;;;;;;5051885;28;20630;-52
2023/10/08 13:18:33;;;;;;;23.40;10.10;;;20.50;99.90;;;;;;5052100;28;20242;-49
2023/10/08 13:21:00;;;;;;;19.70;10.18;;;20.50;99.90;;;;;;5051749;28;20163;-50
2023/10/08 13:23:26;;;;;;;21.30;10.10;;;20.50;99.90;;;;;;5051805;28;20224;-48
2023/10/08 13:25:55;;;;;;;17.75;9.57;;;;;;;;;;5051972;28;20175;-49
2023/10/08 13:28:22;;;;;;;20.60;9.63;;;20.40;99.90;;;;;;5052024;28;20174;-48
2023/10/08 13:30:52;;;;;;;22.67;10.15;;;20.40;99.90;;;;;;5051984;28;20545;-48
2023/10/08 13:33:19;;;;;;;27.23;10.20;;;20.40;99.90;;;;;;5051739;28;20182;-49
2023/10/08 13:35:44;;;;;;;22.70;10.90;;;20.60;99.90;;;;;;5051434;28;20194;-50
2023/10/08 13:38:13;;;;;;;23.92;11.25;;;20.70;99.90;;;;;;5051775;28;20620;-50
2023/10/08 13:40:43;;;;;;;22.80;10.45;;;20.60;99.90;;;;;;5052237;28;20174;-48
2023/10/08 13:43:11;;;;;;;24.15;10.05;;;20.60;99.90;;;;;;5052062;28;20224;-48
2023/10/08 13:45:39;;;;;;;20.85;11.73;;;20.60;99.90;;;;;;5051662;28;20170;-49
2023/10/08 13:48:05;;;;;;;21.85;10.35;;;20.70;99.90;;;;;;5033563;28;20178;-49
2023/10/08 13:50:31;;;;;;;20.17;10.82;;;20.70;99.90;;;;;;5051693;28;20174;-48
2023/10/08 13:52:58;;;;;;;21.58;10.32;;;20.90;99.90;;;;;;5051377;28;20178;-48
2023/10/08 13:55:25;;;;;;;25.60;10.85;;;21.00;99.90;;;;;;5051460;28;20250;-48
2023/10/08 13:57:51;;;;;;;27.60;10.93;;;20.90;99.90;;;;;;5051527;28;20206;-49
2023/10/08 14:00:25;;;;;;;24.42;10.90;;;21.00;99.90;;;;;;5051455;28;20167;-49
2023/10/08 14:02:52;;;;;;;23.10;10.75;;;20.90;99.90;;;;;;5033371;28;20184;-48
2023/10/08 14:05:24;;;;;;;23.60;10.85;;;20.80;99.90;;;;;;5051348;28;20167;-48
2023/10/08 14:07:52;;;;;;;24.38;12.13;;;20.70;99.90;;;;;;5051488;28;20170;-50